sensor_id;sensor_type;location;lat;lon;timestamp;P1;durP1;ratioP1;P2;durP2;ratioP2
20859;SDS011;10590;48.154;11.514;2023-05-10T00:04:46;1.93;;;1.50;;
20859;SDS011;10590;48.154;11.514;2023-05-10T00:10:09;11.53;;;1.30;;
20859;SDS011;10590;48.154;11.514;2023-05-10T00:15:31;1.03;;;0.90;;
20859;SDS011;10590;48.154;11.514;2023-05-10T00:20:55;1.20;;;1.10;;
20859;SDS011;10590;48.154;11.514;2023-05-10T00:26:18;1.20;;;1.10;;
20859;SDS011;10590;48.154;11.514;2023-05-10T00:31:40;2.33;;;1.03;;
20859;SDS011;10590;48.154;11.514;2023-05-10T00:37:02;1.33;;;0.80;;
20859;SDS011;10590;48.154;11.514;2023-05-10T00:42:25;11.77;;;1.27;;
20859;SDS011;10590;48.154;11.514;2023-05-10T00:47:47;1.10;;;1.07;;
20859;SDS011;10590;48.154;11.514;2023-05-10T00:53:09;11.57;;;1.33;;
20859;SDS011;10590;48.154;11.514;2023-05-10T00:58:32;5.87;;;0.90;;
20859;SDS011;10590;48.154;11.514;2023-05-10T01:03:55;0.90;;;0.90;;
20859;SDS011;10590;48.154;11.514;2023-05-10T01:09:17;1.80;;;1.00;;
20859;SDS011;10590;48.154;11.514;2023-05-10T01:14:41;1.20;;;1.00;;
20859;SDS011;10590;48.154;11.514;2023-05-10T01:20:04;0.60;;;0.60;;
20859;SDS011;10590;48.154;11.514;2023-05-10T01:25:32;3.27;;;0.87;;
20859;SDS011;10590;48.154;11.514;2023-05-10T01:37:09;4.70;;;0.70;;
20859;SDS011;10590;48.154;11.514;2023-05-10T01:42:36;1.03;;;0.77;;
20859;SDS011;10590;48.154;11.514;2023-05-10T01:48:05;1.20;;;0.77;;
20859;SDS011;10590;48.154;11.514;2023-05-10T01:53:29;0.67;;;0.67;;
20859;SDS011;10590;48.154;11.514;2023-05-10T01:58:53;0.50;;;0.50;;
20859;SDS011;10590;48.154;11.514;2023-05-10T02:04:16;4.70;;;0.73;;
20859;SDS011;10590;48.154;11.514;2023-05-10T02:09:42;2.33;;;0.70;;
20859;SDS011;10590;48.154;11.514;2023-05-10T02:15:08;0.60;;;0.60;;
20859;SDS011;10590;48.154;11.514;2023-05-10T02:20:31;0.67;;;0.40;;
20859;SDS011;10590;48.154;11.514;2023-05-10T02:25:57;0.97;;;0.97;;
20859;SDS011;10590;48.154;11.514;2023-05-10T02:31:21;1.87;;;0.73;;
20859;SDS011;10590;48.154;11.514;2023-05-10T02:36:44;0.67;;;0.67;;
20859;SDS011;10590;48.154;11.514;2023-05-10T02:42:08;0.40;;;0.40;;
20859;SDS011;10590;48.154;11.514;2023-05-10T02:47:31;0.70;;;0.70;;
20859;SDS011;10590;48.154;11.514;2023-05-10T02:52:54;0.50;;;0.50;;
20859;SDS011;10590;48.154;11.514;2023-05-10T02:58:22;0.70;;;0.60;;
20859;SDS011;10590;48.154;11.514;2023-05-10T03:03:44;0.70;;;0.70;;
20859;SDS011;10590;48.154;11.514;2023-05-10T03:09:06;0.57;;;0.57;;
20859;SDS011;10590;48.154;11.514;2023-05-10T03:14:34;0.40;;;0.40;;
20859;SDS011;10590;48.154;11.514;2023-05-10T03:20:06;0.67;;;0.67;;
20859;SDS011;10590;48.154;11.514;2023-05-10T03:25:32;0.60;;;0.60;;
20859;SDS011;10590;48.154;11.514;2023-05-10T03:30:56;0.60;;;0.60;;
20859;SDS011;10590;48.154;11.514;2023-05-10T03:36:19;0.60;;;0.60;;
20859;SDS011;10590;48.154;11.514;2023-05-10T03:41:41;1.10;;;0.70;;
20859;SDS011;10590;48.154;11.514;2023-05-10T03:47:04;10.63;;;0.77;;
20859;SDS011;10590;48.154;11.514;2023-05-10T03:52:26;1.73;;;0.73;;
20859;SDS011;10590;48.154;11.514;2023-05-10T03:57:48;4.50;;;0.70;;
20859;SDS011;10590;48.154;11.514;2023-05-10T04:03:12;0.53;;;0.53;;
20859;SDS011;10590;48.154;11.514;2023-05-10T04:08:34;5.23;;;0.70;;
20859;SDS011;10590;48.154;11.514;2023-05-10T04:13:56;12.50;;;0.73;;
20859;SDS011;10590;48.154;11.514;2023-05-10T04:19:19;0.70;;;0.70;;
20859;SDS011;10590;48.154;11.514;2023-05-10T04:24:42;0.93;;;0.60;;
20859;SDS011;10590;48.154;11.514;2023-05-10T04:30:04;0.50;;;0.50;;
20859;SDS011;10590;48.154;11.514;2023-05-10T04:35:28;2.70;;;0.90;;
20859;SDS011;10590;48.154;11.514;2023-05-10T04:40:50;0.50;;;0.50;;
20859;SDS011;10590;48.154;11.514;2023-05-10T04:46:12;1.03;;;0.40;;
20859;SDS011;10590;48.154;11.514;2023-05-10T04:51:35;0.60;;;0.60;;
20859;SDS011;10590;48.154;11.514;2023-05-10T04:56:57;9.57;;;0.83;;
20859;SDS011;10590;48.154;11.514;2023-05-10T05:02:19;6.93;;;0.80;;
20859;SDS011;10590;48.154;11.514;2023-05-10T05:07:43;26.27;;;2.33;;
20859;SDS011;10590;48.154;11.514;2023-05-10T05:13:05;26.37;;;2.63;;
20859;SDS011;10590;48.154;11.514;2023-05-10T05:18:27;4.30;;;0.77;;
20859;SDS011;10590;48.154;11.514;2023-05-10T05:23:50;3.37;;;0.77;;
20859;SDS011;10590;48.154;11.514;2023-05-10T05:29:12;6.93;;;1.27;;
20859;SDS011;10590;48.154;11.514;2023-05-10T05:34:34;0.70;;;0.70;;
20859;SDS011;10590;48.154;11.514;2023-05-10T05:39:57;6.03;;;1.07;;
20859;SDS011;10590;48.154;11.514;2023-05-10T05:45:21;8.60;;;1.20;;
20859;SDS011;10590;48.154;11.514;2023-05-10T05:50:43;1.17;;;0.77;;
20859;SDS011;10590;48.154;11.514;2023-05-10T05:56:07;0.63;;;0.63;;
20859;SDS011;10590;48.154;11.514;2023-05-10T06:01:30;0.80;;;0.80;;
20859;SDS011;10590;48.154;11.514;2023-05-10T06:06:52;0.97;;;0.70;;
20859;SDS011;10590;48.154;11.514;2023-05-10T06:12:15;1.53;;;1.03;;
20859;SDS011;10590;48.154;11.514;2023-05-10T06:17:37;3.20;;;0.80;;
20859;SDS011;10590;48.154;11.514;2023-05-10T06:22:59;0.73;;;0.73;;
20859;SDS011;10590;48.154;11.514;2023-05-10T06:28:22;0.80;;;0.80;;
20859;SDS011;10590;48.154;11.514;2023-05-10T06:33:44;0.73;;;0.73;;
20859;SDS011;10590;48.154;11.514;2023-05-10T06:39:06;0.77;;;0.77;;
20859;SDS011;10590;48.154;11.514;2023-05-10T06:44:29;1.30;;;0.83;;
20859;SDS011;10590;48.154;11.514;2023-05-10T06:49:51;0.90;;;0.77;;
20859;SDS011;10590;48.154;11.514;2023-05-10T06:55:13;1.00;;;0.60;;
20859;SDS011;10590;48.154;11.514;2023-05-10T07:00:37;1.27;;;0.67;;
20859;SDS011;10590;48.154;11.514;2023-05-10T07:06:01;0.83;;;0.73;;
20859;SDS011;10590;48.154;11.514;2023-05-10T07:11:24;1.47;;;1.00;;
20859;SDS011;10590;48.154;11.514;2023-05-10T07:16:48;3.73;;;1.20;;
20859;SDS011;10590;48.154;11.514;2023-05-10T07:22:10;1.10;;;1.00;;
20859;SDS011;10590;48.154;11.514;2023-05-10T07:27:32;1.90;;;1.07;;
20859;SDS011;10590;48.154;11.514;2023-05-10T07:32:56;6.60;;;1.37;;
20859;SDS011;10590;48.154;11.514;2023-05-10T07:38:18;1.33;;;1.10;;
20859;SDS011;10590;48.154;11.514;2023-05-10T07:43:40;2.63;;;0.97;;
20859;SDS011;10590;48.154;11.514;2023-05-10T07:49:03;3.47;;;0.90;;
20859;SDS011;10590;48.154;11.514;2023-05-10T07:54:25;0.80;;;0.80;;
20859;SDS011;10590;48.154;11.514;2023-05-10T07:59:48;1.47;;;1.00;;
20859;SDS011;10590;48.154;11.514;2023-05-10T08:05:12;7.37;;;0.80;;
20859;SDS011;10590;48.154;11.514;2023-05-10T08:10:34;0.97;;;0.83;;
20859;SDS011;10590;48.154;11.514;2023-05-10T08:15:57;0.60;;;0.60;;
20859;SDS011;10590;48.154;11.514;2023-05-10T08:21:21;0.60;;;0.60;;
20859;SDS011;10590;48.154;11.514;2023-05-10T08:26:46;1.30;;;0.43;;
20859;SDS011;10590;48.154;11.514;2023-05-10T08:32:09;0.63;;;0.60;;
20859;SDS011;10590;48.154;11.514;2023-05-10T08:37:32;1.20;;;1.10;;
20859;SDS011;10590;48.154;11.514;2023-05-10T08:42:55;1.37;;;0.70;;
20859;SDS011;10590;48.154;11.514;2023-05-10T08:48:20;0.80;;;0.70;;
20859;SDS011;10590;48.154;11.514;2023-05-10T08:53:46;0.70;;;0.70;;
20859;SDS011;10590;48.154;11.514;2023-05-10T08:59:08;0.70;;;0.70;;
20859;SDS011;10590;48.154;11.514;2023-05-10T09:04:31;2.83;;;0.87;;
20859;SDS011;10590;48.154;11.514;2023-05-10T09:09:55;5.10;;;0.90;;
20859;SDS011;10590;48.154;11.514;2023-05-10T09:15:18;0.43;;;0.43;;
20859;SDS011;10590;48.154;11.514;2023-05-10T09:20:41;2.00;;;0.70;;
20859;SDS011;10590;48.154;11.514;2023-05-10T09:26:04;1.93;;;0.70;;
20859;SDS011;10590;48.154;11.514;2023-05-10T09:37:07;10.00;;;0.80;;
20859;SDS011;10590;48.154;11.514;2023-05-10T09:42:31;0.50;;;0.50;;
20859;SDS011;10590;48.154;11.514;2023-05-10T09:47:53;1.63;;;1.00;;
20859;SDS011;10590;48.154;11.514;2023-05-10T09:53:15;1.83;;;1.10;;
20859;SDS011;10590;48.154;11.514;2023-05-10T09:58:39;0.93;;;0.73;;
20859;SDS011;10590;48.154;11.514;2023-05-10T10:04:02;4.47;;;0.80;;
20859;SDS011;10590;48.154;11.514;2023-05-10T10:09:25;1.70;;;0.93;;
20859;SDS011;10590;48.154;11.514;2023-05-10T10:14:49;0.50;;;0.50;;
20859;SDS011;10590;48.154;11.514;2023-05-10T10:20:11;11.77;;;0.93;;
20859;SDS011;10590;48.154;11.514;2023-05-10T10:25:34;2.87;;;0.70;;
20859;SDS011;10590;48.154;11.514;2023-05-10T10:30:59;0.83;;;0.50;;
20859;SDS011;10590;48.154;11.514;2023-05-10T10:36:25;0.60;;;0.50;;
20859;SDS011;10590;48.154;11.514;2023-05-10T10:41:49;8.27;;;3.10;;
20859;SDS011;10590;48.154;11.514;2023-05-10T10:47:23;0.77;;;0.70;;
20859;SDS011;10590;48.154;11.514;2023-05-10T10:52:47;4.37;;;1.40;;
20859;SDS011;10590;48.154;11.514;2023-05-10T10:58:09;1.03;;;1.00;;
20859;SDS011;10590;48.154;11.514;2023-05-10T11:03:33;7.90;;;1.20;;
20859;SDS011;10590;48.154;11.514;2023-05-10T11:08:55;0.90;;;0.90;;
20859;SDS011;10590;48.154;11.514;2023-05-10T11:14:19;1.43;;;0.60;;
20859;SDS011;10590;48.154;11.514;2023-05-10T11:19:53;1.13;;;0.70;;
20859;SDS011;10590;48.154;11.514;2023-05-10T11:25:28;6.47;;;0.93;;
20859;SDS011;10590;48.154;11.514;2023-05-10T11:30:50;2.03;;;0.77;;
20859;SDS011;10590;48.154;11.514;2023-05-10T11:36:15;22.47;;;1.67;;
20859;SDS011;10590;48.154;11.514;2023-05-10T11:41:39;62.80;;;4.43;;
20859;SDS011;10590;48.154;11.514;2023-05-10T11:47:01;8.00;;;2.23;;
20859;SDS011;10590;48.154;11.514;2023-05-10T11:52:25;15.10;;;1.70;;
20859;SDS011;10590;48.154;11.514;2023-05-10T11:57:47;15.87;;;2.60;;
20859;SDS011;10590;48.154;11.514;2023-05-10T12:03:09;63.67;;;2.97;;
20859;SDS011;10590;48.154;11.514;2023-05-10T12:08:32;6.57;;;1.57;;
20859;SDS011;10590;48.154;11.514;2023-05-10T12:13:55;12.27;;;1.80;;
20859;SDS011;10590;48.154;11.514;2023-05-10T12:19:18;42.23;;;3.30;;
20859;SDS011;10590;48.154;11.514;2023-05-10T12:24:42;33.60;;;3.37;;
20859;SDS011;10590;48.154;11.514;2023-05-10T12:30:07;27.33;;;2.50;;
20859;SDS011;10590;48.154;11.514;2023-05-10T12:35:30;35.27;;;3.00;;
20859;SDS011;10590;48.154;11.514;2023-05-10T12:40:54;4.70;;;1.87;;
20859;SDS011;10590;48.154;11.514;2023-05-10T12:46:16;9.97;;;1.53;;
20859;SDS011;10590;48.154;11.514;2023-05-10T12:51:38;4.03;;;1.43;;
20859;SDS011;10590;48.154;11.514;2023-05-10T12:57:02;5.63;;;2.43;;
20859;SDS011;10590;48.154;11.514;2023-05-10T13:02:24;5.93;;;2.10;;
20859;SDS011;10590;48.154;11.514;2023-05-10T13:07:46;2.77;;;1.57;;
20859;SDS011;10590;48.154;11.514;2023-05-10T13:13:09;1.97;;;1.43;;
20859;SDS011;10590;48.154;11.514;2023-05-10T13:18:31;6.93;;;1.60;;
20859;SDS011;10590;48.154;11.514;2023-05-10T13:23:53;2.87;;;1.47;;
20859;SDS011;10590;48.154;11.514;2023-05-10T13:29:16;1.77;;;1.17;;
20859;SDS011;10590;48.154;11.514;2023-05-10T13:34:38;1.50;;;1.30;;
20859;SDS011;10590;48.154;11.514;2023-05-10T13:40:00;4.90;;;1.53;;
20859;SDS011;10590;48.154;11.514;2023-05-10T13:45:24;1.10;;;1.00;;
20859;SDS011;10590;48.154;11.514;2023-05-10T13:50:46;10.03;;;1.50;;
20859;SDS011;10590;48.154;11.514;2023-05-10T13:56:08;18.77;;;1.97;;
20859;SDS011;10590;48.154;11.514;2023-05-10T14:01:31;2.60;;;1.40;;
20859;SDS011;10590;48.154;11.514;2023-05-10T14:06:53;5.03;;;1.30;;
20859;SDS011;10590;48.154;11.514;2023-05-10T14:12:15;2.20;;;1.30;;
20859;SDS011;10590;48.154;11.514;2023-05-10T14:17:38;2.47;;;1.60;;
20859;SDS011;10590;48.154;11.514;2023-05-10T14:23:00;1.27;;;1.13;;
20859;SDS011;10590;48.154;11.514;2023-05-10T14:28:22;8.20;;;1.53;;
20859;SDS011;10590;48.154;11.514;2023-05-10T14:33:46;1.80;;;1.00;;
20859;SDS011;10590;48.154;11.514;2023-05-10T14:39:08;2.40;;;1.30;;
20859;SDS011;10590;48.154;11.514;2023-05-10T14:44:33;5.50;;;1.40;;
20859;SDS011;10590;48.154;11.514;2023-05-10T14:49:56;12.53;;;1.97;;
20859;SDS011;10590;48.154;11.514;2023-05-10T14:55:18;10.23;;;2.00;;
20859;SDS011;10590;48.154;11.514;2023-05-10T15:00:40;13.07;;;2.10;;
20859;SDS011;10590;48.154;11.514;2023-05-10T15:06:04;44.83;;;3.33;;
20859;SDS011;10590;48.154;11.514;2023-05-10T15:11:27;3.67;;;2.00;;
20859;SDS011;10590;48.154;11.514;2023-05-10T15:16:49;10.43;;;1.67;;
20859;SDS011;10590;48.154;11.514;2023-05-10T15:22:12;4.47;;;1.30;;
20859;SDS011;10590;48.154;11.514;2023-05-10T15:27:35;6.20;;;1.80;;
20859;SDS011;10590;48.154;11.514;2023-05-10T15:32:57;6.83;;;1.60;;
20859;SDS011;10590;48.154;11.514;2023-05-10T15:38:20;7.40;;;1.33;;
20859;SDS011;10590;48.154;11.514;2023-05-10T15:43:42;1.40;;;1.23;;
20859;SDS011;10590;48.154;11.514;2023-05-10T15:49:07;2.03;;;1.33;;
20859;SDS011;10590;48.154;11.514;2023-05-10T15:54:30;1.50;;;1.20;;
20859;SDS011;10590;48.154;11.514;2023-05-10T15:59:52;2.53;;;1.47;;
20859;SDS011;10590;48.154;11.514;2023-05-10T16:05:15;4.77;;;1.27;;
20859;SDS011;10590;48.154;11.514;2023-05-10T16:10:38;2.90;;;1.50;;
20859;SDS011;10590;48.154;11.514;2023-05-10T16:16:01;1.97;;;1.10;;
20859;SDS011;10590;48.154;11.514;2023-05-10T16:21:23;0.97;;;0.90;;
20859;SDS011;10590;48.154;11.514;2023-05-10T16:26:47;0.90;;;0.90;;
20859;SDS011;10590;48.154;11.514;2023-05-10T16:32:09;3.53;;;1.83;;
20859;SDS011;10590;48.154;11.514;2023-05-10T16:37:30;1.30;;;1.20;;
20859;SDS011;10590;48.154;11.514;2023-05-10T16:42:54;1.27;;;1.17;;
20859;SDS011;10590;48.154;11.514;2023-05-10T16:48:16;2.57;;;1.87;;
20859;SDS011;10590;48.154;11.514;2023-05-10T16:53:37;1.60;;;1.50;;
20859;SDS011;10590;48.154;11.514;2023-05-10T16:59:01;13.73;;;2.10;;
20859;SDS011;10590;48.154;11.514;2023-05-10T17:04:23;81.03;;;4.27;;
20859;SDS011;10590;48.154;11.514;2023-05-10T17:09:45;103.07;;;6.23;;
20859;SDS011;10590;48.154;11.514;2023-05-10T17:15:09;42.13;;;3.50;;
20859;SDS011;10590;48.154;11.514;2023-05-10T17:20:31;7.07;;;1.70;;
20859;SDS011;10590;48.154;11.514;2023-05-10T17:25:53;54.70;;;2.70;;
20859;SDS011;10590;48.154;11.514;2023-05-10T17:31:17;37.23;;;2.97;;
20859;SDS011;10590;48.154;11.514;2023-05-10T17:36:39;17.60;;;1.70;;
20859;SDS011;10590;48.154;11.514;2023-05-10T17:42:00;10.63;;;1.60;;
20859;SDS011;10590;48.154;11.514;2023-05-10T17:47:24;5.30;;;1.40;;
20859;SDS011;10590;48.154;11.514;2023-05-10T17:52:47;1.90;;;1.50;;
20859;SDS011;10590;48.154;11.514;2023-05-10T17:58:09;9.07;;;1.63;;
20859;SDS011;10590;48.154;11.514;2023-05-10T18:03:33;2.50;;;1.87;;
20859;SDS011;10590;48.154;11.514;2023-05-10T18:08:55;1.43;;;1.33;;
20859;SDS011;10590;48.154;11.514;2023-05-10T18:14:17;8.13;;;1.60;;
20859;SDS011;10590;48.154;11.514;2023-05-10T18:19:41;2.20;;;1.50;;
20859;SDS011;10590;48.154;11.514;2023-05-10T18:25:06;2.73;;;1.60;;
20859;SDS011;10590;48.154;11.514;2023-05-10T18:30:29;1.73;;;1.50;;
20859;SDS011;10590;48.154;11.514;2023-05-10T18:35:53;6.27;;;1.57;;
20859;SDS011;10590;48.154;11.514;2023-05-10T18:41:15;2.50;;;1.70;;
20859;SDS011;10590;48.154;11.514;2023-05-10T18:46:38;1.80;;;1.47;;
20859;SDS011;10590;48.154;11.514;2023-05-10T18:52:03;3.27;;;1.40;;
20859;SDS011;10590;48.154;11.514;2023-05-10T18:57:25;1.17;;;1.10;;
20859;SDS011;10590;48.154;11.514;2023-05-10T19:03:00;1.43;;;1.33;;
20859;SDS011;10590;48.154;11.514;2023-05-10T19:08:23;7.37;;;2.10;;
20859;SDS011;10590;48.154;11.514;2023-05-10T19:13:46;2.57;;;1.60;;
20859;SDS011;10590;48.154;11.514;2023-05-10T19:19:08;1.80;;;1.57;;
20859;SDS011;10590;48.154;11.514;2023-05-10T19:24:33;3.17;;;2.00;;
20859;SDS011;10590;48.154;11.514;2023-05-10T19:29:55;3.20;;;1.60;;
20859;SDS011;10590;48.154;11.514;2023-05-10T19:35:16;9.80;;;2.37;;
20859;SDS011;10590;48.154;11.514;2023-05-10T19:40:40;3.83;;;1.80;;
20859;SDS011;10590;48.154;11.514;2023-05-10T19:46:02;7.50;;;2.30;;
20859;SDS011;10590;48.154;11.514;2023-05-10T19:51:24;2.60;;;1.53;;
20859;SDS011;10590;48.154;11.514;2023-05-10T19:56:47;2.77;;;2.07;;
20859;SDS011;10590;48.154;11.514;2023-05-10T20:02:09;6.20;;;1.97;;
20859;SDS011;10590;48.154;11.514;2023-05-10T20:07:31;2.57;;;1.70;;
20859;SDS011;10590;48.154;11.514;2023-05-10T20:12:54;4.53;;;1.70;;
20859;SDS011;10590;48.154;11.514;2023-05-10T20:18:18;1.43;;;1.10;;
20859;SDS011;10590;48.154;11.514;2023-05-10T20:23:39;1.47;;;1.37;;
20859;SDS011;10590;48.154;11.514;2023-05-10T20:29:03;1.40;;;1.30;;
20859;SDS011;10590;48.154;11.514;2023-05-10T20:34:25;1.70;;;1.50;;
20859;SDS011;10590;48.154;11.514;2023-05-10T20:39:46;2.40;;;1.57;;
20859;SDS011;10590;48.154;11.514;2023-05-10T20:45:10;2.00;;;1.80;;
20859;SDS011;10590;48.154;11.514;2023-05-10T20:50:32;3.80;;;2.00;;
20859;SDS011;10590;48.154;11.514;2023-05-10T20:55:54;2.33;;;1.90;;
20859;SDS011;10590;48.154;11.514;2023-05-10T21:01:18;9.17;;;1.60;;
20859;SDS011;10590;48.154;11.514;2023-05-10T21:06:40;1.77;;;1.67;;
20859;SDS011;10590;48.154;11.514;2023-05-10T21:12:03;2.80;;;1.93;;
20859;SDS011;10590;48.154;11.514;2023-05-10T21:17:27;1.90;;;1.70;;
20859;SDS011;10590;48.154;11.514;2023-05-10T21:22:49;2.60;;;1.80;;
20859;SDS011;10590;48.154;11.514;2023-05-10T21:28:11;1.33;;;1.23;;
20859;SDS011;10590;48.154;11.514;2023-05-10T21:33:34;1.83;;;1.60;;
20859;SDS011;10590;48.154;11.514;2023-05-10T21:39:00;1.57;;;1.47;;
20859;SDS011;10590;48.154;11.514;2023-05-10T21:44:22;5.03;;;1.67;;
20859;SDS011;10590;48.154;11.514;2023-05-10T21:49:46;12.83;;;1.33;;
20859;SDS011;10590;48.154;11.514;2023-05-10T21:55:09;17.03;;;1.53;;
20859;SDS011;10590;48.154;11.514;2023-05-10T22:00:31;1.43;;;1.30;;
20859;SDS011;10590;48.154;11.514;2023-05-10T22:05:55;2.57;;;1.40;;
20859;SDS011;10590;48.154;11.514;2023-05-10T22:11:17;2.10;;;1.50;;
20859;SDS011;10590;48.154;11.514;2023-05-10T22:16:39;1.43;;;1.23;;
20859;SDS011;10590;48.154;11.514;2023-05-10T22:22:02;1.20;;;1.10;;
20859;SDS011;10590;48.154;11.514;2023-05-10T22:27:24;1.43;;;1.20;;
20859;SDS011;10590;48.154;11.514;2023-05-10T22:32:46;1.40;;;1.30;;
20859;SDS011;10590;48.154;11.514;2023-05-10T22:38:09;1.27;;;1.17;;
20859;SDS011;10590;48.154;11.514;2023-05-10T22:43:32;1.73;;;1.40;;
20859;SDS011;10590;48.154;11.514;2023-05-10T22:48:54;1.37;;;1.20;;
20859;SDS011;10590;48.154;11.514;2023-05-10T22:54:17;1.93;;;1.50;;
20859;SDS011;10590;48.154;11.514;2023-05-10T22:59:39;2.70;;;1.40;;
20859;SDS011;10590;48.154;11.514;2023-05-10T23:05:01;1.43;;;1.00;;
20859;SDS011;10590;48.154;11.514;2023-05-10T23:10:25;1.43;;;1.00;;
20859;SDS011;10590;48.154;11.514;2023-05-10T23:15:47;1.20;;;1.10;;
20859;SDS011;10590;48.154;11.514;2023-05-10T23:21:10;3.90;;;1.17;;
20859;SDS011;10590;48.154;11.514;2023-05-10T23:26:33;2.87;;;1.37;;
20859;SDS011;10590;48.154;11.514;2023-05-10T23:31:55;1.23;;;1.17;;
20859;SDS011;10590;48.154;11.514;2023-05-10T23:37:17;3.73;;;1.20;;
20859;SDS011;10590;48.154;11.514;2023-05-10T23:42:40;2.10;;;1.40;;
20859;SDS011;10590;48.154;11.514;2023-05-10T23:48:02;1.43;;;1.23;;
20859;SDS011;10590;48.154;11.514;2023-05-10T23:53:24;7.70;;;1.40;;
20859;SDS011;10590;48.154;11.514;2023-05-10T23:58:47;1.43;;;1.13;;
